createdAt,value
2022-10-12T00:00:11.074Z,119.93
2022-10-12T00:02:42.539Z,118.60
2022-10-12T00:05:10.118Z,119.40
2022-10-12T00:07:38.119Z,120.00
2022-10-12T00:10:06.251Z,119.20
2022-10-12T00:12:34.738Z,120.00
2022-10-12T00:15:02.266Z,119.27
2022-10-12T00:17:29.826Z,119.50
2022-10-12T00:19:57.263Z,119.43
2022-10-12T00:22:24.799Z,119.97
2022-10-12T00:24:53.834Z,118.97
2022-10-12T00:27:21.405Z,119.10
2022-10-12T00:29:48.567Z,119.70
2022-10-12T00:32:15.539Z,119.13
2022-10-12T00:34:43.047Z,119.20
2022-10-12T00:37:10.703Z,119.77
2022-10-12T00:39:38.274Z,119.90
2022-10-12T00:42:05.331Z,119.73
2022-10-12T00:44:40.369Z,119.97
2022-10-12T00:47:26.871Z,118.77
2022-10-12T00:50:20.648Z,119.80
2022-10-12T00:53:06.903Z,119.10
2022-10-12T00:55:40.330Z,119.80
2022-10-12T00:58:09.205Z,119.60
2022-10-12T01:00:39.363Z,119.57
2022-10-12T01:03:10.949Z,119.07
2022-10-12T01:05:40.939Z,118.17
2022-10-12T01:08:08.751Z,119.87
2022-10-12T01:10:36.248Z,118.20
2022-10-12T01:13:04.407Z,119.43
2022-10-12T01:15:49.328Z,118.67
2022-10-12T01:18:22.931Z,119.37
2022-10-12T01:21:01.808Z,118.93
2022-10-12T01:25:04.029Z,118.87
2022-10-12T01:27:49.159Z,119.77
2022-10-12T01:30:22.133Z,118.97
2022-10-12T01:33:10.137Z,118.40
2022-10-12T01:36:14.441Z,119.60
2022-10-12T01:39:15.433Z,119.23
2022-10-12T01:41:52.464Z,119.77
2022-10-12T01:44:26.127Z,119.13
2022-10-12T01:46:56.159Z,119.97
2022-10-12T01:49:31.132Z,119.03
2022-10-12T01:52:10.549Z,118.97
2022-10-12T01:55:22.373Z,119.97
2022-10-12T01:58:17.968Z,119.60
2022-10-12T02:01:06.213Z,119.20
2022-10-12T02:04:11.021Z,119.60
2022-10-12T02:06:45.282Z,119.80
2022-10-12T02:09:27.612Z,119.40
2022-10-12T02:11:58.425Z,119.20
2022-10-12T02:14:39.013Z,118.30
2022-10-12T02:17:13.905Z,120.00
2022-10-12T02:19:46.592Z,119.87
2022-10-12T02:22:16.981Z,119.07
2022-10-12T02:24:49.173Z,119.17
2022-10-12T02:27:18.897Z,119.10
2022-10-12T02:29:48.361Z,119.50
2022-10-12T02:32:38.458Z,119.20
2022-10-12T02:35:34.721Z,119.17
2022-10-12T02:38:15.183Z,119.17
2022-10-12T02:41:00.285Z,119.10
2022-10-12T02:43:44.351Z,119.57
2022-10-12T02:46:12.813Z,118.77
2022-10-12T02:48:41.899Z,119.70
2022-10-12T02:51:11.319Z,119.77
2022-10-12T02:53:39.242Z,118.17
2022-10-12T02:56:12.738Z,118.67
2022-10-12T02:58:42.863Z,119.20
2022-10-12T03:01:10.817Z,119.37
2022-10-12T03:03:38.893Z,119.40
2022-10-12T03:06:06.711Z,118.97
2022-10-12T03:08:34.102Z,119.63
2022-10-12T03:11:07.513Z,119.50
2022-10-12T03:13:35.459Z,119.67
2022-10-12T03:16:10.147Z,119.80
2022-10-12T03:18:38.322Z,119.37
2022-10-12T03:21:06.159Z,119.77
2022-10-12T03:23:34.039Z,119.77
2022-10-12T03:26:01.516Z,118.57
2022-10-12T03:28:29.181Z,118.57
2022-10-12T03:30:57.219Z,120.17
2022-10-12T03:33:24.878Z,118.60
2022-10-12T03:35:52.758Z,119.93
2022-10-12T03:38:20.967Z,118.67
2022-10-12T03:40:48.127Z,119.27
2022-10-12T03:43:15.595Z,119.63
2022-10-12T03:45:43.109Z,119.43
2022-10-12T03:48:10.586Z,118.77
2022-10-12T03:50:38.015Z,119.40
2022-10-12T03:53:06.395Z,119.30
2022-10-12T03:55:34.307Z,119.47
2022-10-12T03:58:01.769Z,120.03
2022-10-12T04:00:29.360Z,120.03
2022-10-12T04:02:57.020Z,117.93
2022-10-12T04:05:24.696Z,119.87
2022-10-12T04:07:52.371Z,119.27
2022-10-12T04:10:19.905Z,119.17
2022-10-12T04:12:47.436Z,118.97
2022-10-12T04:15:18.003Z,119.80
2022-10-12T04:17:45.919Z,120.37
2022-10-12T04:20:13.751Z,119.80
2022-10-12T04:22:41.280Z,119.67
2022-10-12T04:25:10.522Z,119.43
2022-10-12T04:27:38.265Z,118.70
2022-10-12T04:30:06.615Z,120.27
2022-10-12T04:32:34.007Z,120.40
2022-10-12T04:35:01.420Z,120.40
2022-10-12T04:37:32.105Z,119.10
2022-10-12T04:39:59.500Z,119.53
2022-10-12T04:42:27.365Z,119.90
2022-10-12T04:44:54.845Z,119.10
2022-10-12T04:47:22.485Z,120.30
2022-10-12T04:49:50.287Z,119.83
2022-10-12T04:52:17.736Z,119.37
2022-10-12T04:54:45.282Z,119.77
2022-10-12T04:57:12.721Z,119.60
2022-10-12T04:59:40.242Z,120.20
2022-10-12T05:02:07.148Z,120.10
2022-10-12T05:07:07.073Z,120.20
2022-10-12T05:09:34.557Z,118.70
2022-10-12T05:12:01.989Z,120.77
2022-10-12T05:14:33.574Z,119.77
2022-10-12T05:17:03.649Z,118.87
2022-10-12T05:19:31.158Z,120.10
2022-10-12T05:21:58.696Z,120.33
2022-10-12T05:24:26.677Z,120.17
2022-10-12T05:26:54.445Z,120.00
2022-10-12T05:29:21.873Z,119.70
2022-10-12T05:31:49.453Z,120.10
2022-10-12T05:34:16.655Z,119.97
2022-10-12T05:36:44.137Z,120.00
2022-10-12T05:39:12.094Z,120.47
2022-10-12T05:41:39.777Z,119.17
2022-10-12T05:44:07.229Z,120.07
2022-10-12T05:46:34.701Z,120.30
2022-10-12T05:49:02.201Z,119.77
2022-10-12T05:51:29.734Z,118.67
2022-10-12T05:53:57.997Z,120.30
2022-10-12T05:56:25.890Z,119.40
2022-10-12T05:58:53.329Z,120.10
2022-10-12T06:01:21.852Z,119.17
2022-10-12T06:03:48.905Z,120.17
2022-10-12T06:06:16.406Z,119.57
2022-10-12T06:08:43.980Z,120.07
2022-10-12T06:11:11.570Z,120.27
2022-10-12T06:13:39.302Z,119.93
2022-10-12T06:16:09.690Z,119.60
2022-10-12T06:18:37.239Z,119.60
2022-10-12T06:21:28.473Z,119.30
2022-10-12T06:23:52.143Z,118.67
2022-10-12T06:26:19.618Z,118.67
2022-10-12T06:28:47.197Z,119.80
2022-10-12T06:31:14.954Z,118.07
2022-10-12T06:33:42.366Z,119.50
2022-10-12T06:36:09.834Z,119.63
2022-10-12T06:38:37.322Z,119.20
2022-10-12T06:41:04.854Z,119.47
2022-10-12T06:43:32.339Z,118.47
2022-10-12T06:46:03.748Z,119.07
2022-10-12T06:48:31.356Z,119.47
2022-10-12T06:50:59.440Z,117.87
2022-10-12T06:53:32.747Z,118.30
2022-10-12T06:56:06.109Z,118.37
2022-10-12T06:58:33.567Z,118.90
2022-10-12T07:01:06.839Z,118.53
2022-10-12T07:03:34.786Z,118.77
2022-10-12T07:06:14.051Z,118.60
2022-10-12T07:08:43.000Z,117.53
2022-10-12T07:11:12.771Z,117.27
2022-10-12T07:13:40.446Z,118.47
2022-10-12T07:16:08.160Z,118.67
2022-10-12T07:18:35.648Z,116.70
2022-10-12T07:21:03.223Z,118.47
2022-10-12T07:23:32.379Z,118.77
2022-10-12T07:26:00.526Z,118.20
2022-10-12T07:28:28.040Z,118.37
2022-10-12T07:31:01.429Z,118.37
2022-10-12T07:33:35.750Z,118.47
2022-10-12T07:36:13.730Z,118.47
2022-10-12T07:38:45.705Z,118.27
2022-10-12T07:41:14.261Z,118.67
2022-10-12T07:43:41.823Z,118.27
2022-10-12T07:46:09.462Z,118.27
2022-10-12T07:48:37.756Z,118.80
2022-10-12T07:51:08.147Z,118.43
2022-10-12T07:53:38.332Z,119.00
2022-10-12T07:56:14.754Z,118.70
2022-10-12T07:58:54.149Z,118.10
2022-10-12T08:04:02.782Z,119.00
2022-10-12T08:06:33.309Z,119.00
2022-10-12T08:09:02.784Z,118.30
2022-10-12T08:11:30.676Z,118.43
2022-10-12T08:13:58.204Z,118.23
2022-10-12T08:16:25.820Z,118.20
2022-10-12T08:18:52.952Z,118.60
2022-10-12T08:21:20.408Z,118.67
2022-10-12T08:23:48.642Z,119.27
2022-10-12T08:26:16.673Z,118.57
2022-10-12T08:28:44.538Z,119.00
2022-10-12T08:31:17.813Z,118.40
2022-10-12T08:33:45.472Z,118.37
2022-10-12T08:36:13.487Z,118.60
2022-10-12T08:38:43.220Z,118.83
2022-10-12T08:41:23.531Z,119.10
2022-10-12T08:44:18.828Z,119.27
2022-10-12T08:46:46.705Z,118.70
2022-10-12T08:49:23.059Z,119.60
2022-10-12T08:52:06.184Z,118.83
2022-10-12T08:54:43.977Z,118.13
2022-10-12T08:57:18.709Z,117.50
2022-10-12T08:59:49.233Z,116.80
2022-10-12T09:03:07.214Z,116.80
2022-10-12T09:06:24.349Z,117.67
2022-10-12T09:10:02.883Z,117.70
2022-10-12T09:13:04.001Z,116.50
2022-10-12T09:15:37.362Z,115.87
2022-10-12T09:18:19.469Z,116.13
2022-10-12T09:20:50.709Z,117.37
2022-10-12T09:23:25.230Z,116.60
2022-10-12T09:26:11.739Z,115.60
2022-10-12T09:28:57.257Z,117.17
2022-10-12T09:31:58.432Z,116.17
2022-10-12T09:34:25.815Z,116.63
2022-10-12T09:36:55.435Z,117.47
2022-10-12T09:39:33.582Z,116.70
2022-10-12T09:42:01.300Z,117.30
2022-10-12T09:44:39.914Z,116.77
2022-10-12T09:47:31.780Z,116.57
2022-10-12T09:50:05.756Z,117.10
2022-10-12T09:52:36.363Z,116.93
2022-10-12T09:58:00.412Z,116.40
2022-10-12T10:00:34.286Z,117.07
2022-10-12T10:03:05.797Z,116.40
2022-10-12T10:05:38.528Z,115.87
2022-10-12T10:08:23.191Z,115.87
2022-10-12T10:10:52.983Z,115.37
2022-10-12T10:13:23.253Z,115.20
2022-10-12T10:16:03.783Z,115.57
2022-10-12T10:18:43.833Z,115.97
2022-10-12T10:21:14.975Z,114.77
2022-10-12T10:24:00.882Z,114.57
2022-10-12T10:26:32.117Z,115.90
2022-10-12T10:29:21.683Z,114.97
2022-10-12T10:31:51.703Z,114.40
2022-10-12T10:34:20.235Z,113.10
2022-10-12T10:36:56.162Z,114.40
2022-10-12T10:39:44.404Z,113.87
2022-10-12T10:42:18.091Z,115.13
2022-10-12T10:45:06.844Z,115.10
2022-10-12T10:47:43.159Z,115.27
2022-10-12T10:50:29.268Z,113.67
2022-10-12T10:53:05.881Z,113.40
2022-10-12T10:56:08.177Z,114.00
2022-10-12T10:58:51.737Z,113.47
2022-10-12T11:01:54.483Z,113.30
2022-10-12T11:04:34.824Z,113.77
2022-10-12T11:07:50.204Z,113.97
2022-10-12T11:10:29.223Z,113.80
2022-10-12T11:13:24.550Z,114.37
2022-10-12T11:16:03.757Z,114.97
2022-10-12T11:18:38.056Z,115.47
2022-10-12T11:21:21.117Z,113.87
2022-10-12T11:24:01.993Z,114.40
2022-10-12T11:26:41.197Z,114.67
2022-10-12T11:29:21.236Z,114.53
2022-10-12T11:32:07.944Z,115.00
2022-10-12T11:34:58.385Z,114.80
2022-10-12T11:37:53.984Z,114.40
2022-10-12T11:43:54.822Z,114.57
2022-10-12T11:47:01.893Z,114.40
2022-10-12T11:50:03.701Z,114.50
2022-10-12T11:52:49.093Z,113.17
2022-10-12T11:55:27.701Z,113.03
2022-10-12T11:58:00.800Z,113.07
2022-10-12T12:01:03.417Z,113.17
2022-10-12T12:04:40.117Z,113.57
2022-10-12T12:07:05.381Z,113.50
2022-10-12T12:09:39.686Z,113.77
2022-10-12T12:12:26.850Z,114.90
2022-10-12T12:14:54.149Z,113.87
2022-10-12T12:17:31.889Z,115.40
2022-10-12T12:20:23.454Z,117.10
2022-10-12T12:22:54.546Z,117.10
2022-10-12T12:25:32.714Z,117.57
2022-10-12T12:28:24.460Z,118.10
2022-10-12T12:31:03.232Z,117.10
2022-10-12T12:33:42.004Z,117.07
2022-10-12T12:36:33.881Z,116.37
2022-10-12T12:39:03.789Z,115.60
2022-10-12T12:42:04.677Z,115.67
2022-10-12T12:44:42.634Z,113.13
2022-10-12T12:50:07.429Z,113.97
2022-10-12T12:52:39.336Z,114.37
2022-10-12T12:55:45.847Z,114.53
2022-10-12T12:59:01.099Z,114.77
2022-10-12T13:01:56.933Z,112.77
2022-10-12T13:05:18.954Z,114.47
2022-10-12T13:08:36.416Z,114.00
2022-10-12T13:11:58.244Z,113.97
2022-10-12T13:15:21.834Z,113.87
2022-10-12T13:18:46.975Z,114.17
2022-10-12T13:21:30.295Z,113.47
2022-10-12T13:24:23.863Z,114.57
2022-10-12T13:27:15.558Z,114.37
2022-10-12T13:29:59.578Z,114.00
2022-10-12T13:32:56.207Z,114.30
2022-10-12T13:35:48.549Z,114.80
2022-10-12T13:38:15.911Z,114.67
2022-10-12T13:40:51.464Z,115.07
2022-10-12T13:43:48.391Z,114.50
2022-10-12T13:46:39.143Z,115.10
2022-10-12T13:49:19.215Z,114.90
2022-10-12T13:52:01.021Z,114.07
2022-10-12T13:54:41.777Z,114.57
2022-10-12T13:57:41.132Z,114.93
2022-10-12T14:00:24.880Z,115.87
2022-10-12T14:03:00.860Z,115.77
2022-10-12T14:05:33.309Z,115.57
2022-10-12T14:08:13.747Z,114.53
2022-10-12T14:10:44.372Z,114.63
2022-10-12T14:13:17.636Z,114.73
2022-10-12T14:15:45.384Z,115.00
2022-10-12T14:18:51.172Z,115.50
2022-10-12T14:21:32.165Z,115.40
2022-10-12T14:24:10.335Z,116.37
2022-10-12T14:26:44.737Z,116.37
2022-10-12T14:29:46.073Z,113.97
2022-10-12T14:32:12.912Z,115.20
2022-10-12T14:34:45.549Z,115.40
2022-10-12T14:37:15.908Z,115.70
2022-10-12T14:39:49.361Z,115.07
2022-10-12T14:42:28.889Z,114.07
2022-10-12T14:44:56.622Z,116.17
2022-10-12T14:47:27.864Z,114.77
2022-10-12T14:49:58.536Z,115.10
2022-10-12T14:52:42.170Z,115.33
2022-10-12T14:55:23.352Z,116.70
2022-10-12T14:57:51.489Z,115.47
2022-10-12T15:00:29.470Z,116.47
2022-10-12T15:02:57.321Z,116.40
2022-10-12T15:05:28.905Z,116.37
2022-10-12T15:07:56.545Z,115.97
2022-10-12T15:10:25.657Z,116.37
2022-10-12T15:12:54.285Z,116.67
2022-10-12T15:15:46.643Z,116.63
2022-10-12T15:18:14.288Z,117.47
2022-10-12T15:20:44.298Z,117.97
2022-10-12T15:23:15.959Z,118.47
2022-10-12T15:25:54.194Z,118.90
2022-10-12T15:28:22.890Z,119.17
2022-10-12T15:31:16.536Z,119.57
2022-10-12T15:33:40.056Z,118.60
2022-10-12T15:36:08.846Z,119.43
2022-10-12T15:38:36.806Z,119.40
2022-10-12T15:41:04.318Z,119.37
2022-10-12T15:43:32.991Z,119.63
2022-10-12T15:46:02.309Z,120.10
2022-10-12T15:48:29.851Z,120.00
2022-10-12T15:50:57.421Z,119.80
2022-10-12T15:53:26.405Z,119.80
2022-10-12T15:55:54.966Z,120.67
2022-10-12T15:58:22.694Z,120.40
2022-10-12T16:00:50.219Z,119.83
2022-10-12T16:03:25.512Z,120.00
2022-10-12T16:05:53.834Z,120.33
2022-10-12T16:08:21.211Z,120.40
2022-10-12T16:10:48.915Z,120.07
2022-10-12T16:13:17.522Z,120.37
2022-10-12T16:15:45.306Z,119.90
2022-10-12T16:18:15.416Z,119.90
2022-10-12T16:20:46.694Z,120.27
2022-10-12T16:23:35.643Z,120.67
2022-10-12T16:26:09.518Z,121.07
2022-10-12T16:28:37.294Z,121.00
2022-10-12T16:31:15.734Z,120.80
2022-10-12T16:33:43.824Z,121.00
2022-10-12T16:36:15.134Z,121.17
2022-10-12T16:38:43.915Z,121.30
2022-10-12T16:41:16.822Z,121.50
2022-10-12T16:43:45.675Z,121.40
2022-10-12T16:46:13.142Z,121.60
2022-10-12T16:48:40.563Z,121.37
2022-10-12T16:51:13.554Z,121.50
2022-10-12T16:53:44.044Z,121.80
2022-10-12T16:56:11.589Z,122.17
2022-10-12T16:58:39.065Z,121.93
2022-10-12T17:01:11.919Z,121.47
2022-10-12T17:03:40.075Z,121.67
2022-10-12T17:06:07.903Z,121.27
2022-10-12T17:08:36.699Z,121.80
2022-10-12T17:11:14.096Z,121.83
2022-10-12T17:13:48.064Z,121.40
2022-10-12T17:16:36.076Z,121.50
2022-10-12T17:19:03.428Z,121.60
2022-10-12T17:21:30.928Z,121.80
2022-10-12T17:24:01.643Z,121.27
2022-10-12T17:26:29.443Z,121.93
2022-10-12T17:28:56.950Z,122.00
2022-10-12T17:31:24.504Z,121.53
2022-10-12T17:33:52.028Z,122.30
2022-10-12T17:36:20.875Z,122.00
2022-10-12T17:38:56.689Z,121.87
2022-10-12T17:41:24.432Z,121.77
2022-10-12T17:43:51.985Z,121.70
2022-10-12T17:46:22.526Z,121.70
2022-10-12T17:48:51.448Z,121.60
2022-10-12T17:51:18.544Z,121.90
2022-10-12T17:53:46.140Z,122.10
2022-10-12T17:56:15.694Z,122.07
2022-10-12T17:58:43.730Z,122.07
2022-10-12T18:01:15.217Z,122.47
2022-10-12T18:03:47.026Z,121.67
2022-10-12T18:06:18.069Z,122.10
2022-10-12T18:08:45.859Z,121.60
2022-10-12T18:11:14.387Z,122.00
2022-10-12T18:13:47.326Z,121.90
2022-10-12T18:16:20.921Z,121.37
2022-10-12T18:18:50.703Z,121.67
2022-10-12T18:21:22.589Z,121.40
2022-10-12T18:23:50.921Z,121.60
2022-10-12T18:26:21.754Z,121.60
2022-10-12T18:28:55.576Z,121.47
2022-10-12T18:31:26.305Z,121.13
2022-10-12T18:33:55.425Z,121.20
2022-10-12T18:36:23.106Z,121.20
2022-10-12T18:38:51.046Z,121.20
2022-10-12T18:41:23.006Z,121.00
2022-10-12T18:43:57.440Z,121.40
2022-10-12T18:46:27.521Z,120.63
2022-10-12T18:48:56.446Z,121.03
2022-10-12T18:51:33.954Z,120.90
2022-10-12T18:54:02.866Z,121.00
2022-10-12T18:56:33.822Z,120.70
2022-10-12T18:59:02.114Z,121.27
2022-10-12T19:01:30.710Z,121.13
2022-10-12T19:04:01.081Z,120.67
2022-10-12T19:06:36.080Z,120.77
2022-10-12T19:09:04.847Z,121.50
2022-10-12T19:11:32.671Z,121.37
2022-10-12T19:14:06.287Z,121.40
2022-10-12T19:16:35.492Z,121.20
2022-10-12T19:19:14.887Z,121.27
2022-10-12T19:21:46.115Z,120.70
2022-10-12T19:24:15.521Z,121.23
2022-10-12T19:26:44.346Z,121.50
2022-10-12T19:29:11.582Z,121.07
2022-10-12T19:31:44.067Z,121.43
2022-10-12T19:34:15.571Z,121.40
2022-10-12T19:36:43.056Z,121.10
2022-10-12T19:39:17.702Z,121.17
2022-10-12T19:41:45.876Z,120.97
2022-10-12T19:44:14.520Z,121.07
2022-10-12T19:46:42.881Z,121.07
2022-10-12T19:49:14.387Z,121.10
2022-10-12T19:51:41.983Z,121.17
2022-10-12T19:54:13.619Z,121.30
2022-10-12T19:56:41.203Z,121.03
2022-10-12T19:59:08.591Z,120.57
2022-10-12T20:01:38.395Z,121.07
2022-10-12T20:04:09.791Z,121.17
2022-10-12T20:06:38.474Z,120.60
2022-10-12T20:09:08.185Z,120.63
2022-10-12T20:11:35.743Z,121.10
2022-10-12T20:14:03.211Z,121.00
2022-10-12T20:16:34.873Z,120.67
2022-10-12T20:19:04.371Z,120.50
2022-10-12T20:21:31.984Z,120.87
2022-10-12T20:23:58.945Z,120.20
2022-10-12T20:26:26.625Z,120.70
2022-10-12T20:28:54.563Z,120.70
2022-10-12T20:31:27.292Z,120.43
2022-10-12T20:33:56.428Z,120.30
2022-10-12T20:36:30.034Z,120.80
2022-10-12T20:38:59.123Z,120.27
2022-10-12T20:41:27.580Z,120.27
2022-10-12T20:43:57.344Z,120.80
2022-10-12T20:46:25.733Z,120.00
2022-10-12T20:48:58.739Z,120.43
2022-10-12T20:51:30.942Z,120.53
2022-10-12T20:54:00.766Z,119.87
2022-10-12T20:56:33.612Z,120.33
2022-10-12T20:59:01.500Z,120.00
2022-10-12T21:01:29.201Z,120.47
2022-10-12T21:03:56.716Z,120.43
2022-10-12T21:06:24.928Z,120.40
2022-10-12T21:08:56.153Z,120.47
2022-10-12T21:11:24.264Z,120.20
2022-10-12T21:13:52.103Z,120.67
2022-10-12T21:16:19.961Z,120.57
2022-10-12T21:18:47.873Z,120.77
2022-10-12T21:21:19.764Z,119.07
2022-10-12T21:23:58.390Z,120.67
2022-10-12T21:26:29.167Z,120.10
2022-10-12T21:28:58.243Z,120.27
2022-10-12T21:31:31.795Z,120.50
2022-10-12T21:34:04.685Z,120.20
2022-10-12T21:36:38.180Z,120.77
2022-10-12T21:39:13.850Z,120.17
2022-10-12T21:41:41.817Z,120.57
2022-10-12T21:44:11.425Z,120.30
2022-10-12T21:46:38.953Z,120.13
2022-10-12T21:49:08.233Z,120.87
2022-10-12T21:51:37.078Z,120.20
2022-10-12T21:54:06.381Z,120.27
2022-10-12T21:56:36.386Z,120.10
2022-10-12T21:59:05.907Z,120.47
2022-10-12T22:01:36.387Z,119.70
2022-10-12T22:04:10.347Z,120.30
2022-10-12T22:06:37.827Z,120.20
2022-10-12T22:09:16.449Z,120.07
2022-10-12T22:11:45.010Z,120.10
2022-10-12T22:14:17.900Z,120.07
2022-10-12T22:16:46.018Z,120.37
2022-10-12T22:19:19.807Z,120.17
2022-10-12T22:21:50.915Z,120.13
2022-10-12T22:24:20.491Z,120.47
2022-10-12T22:26:47.618Z,120.27
2022-10-12T22:29:15.044Z,120.10
2022-10-12T22:31:44.268Z,120.47
2022-10-12T22:34:13.700Z,119.60
2022-10-12T22:36:41.263Z,120.30
2022-10-12T22:39:08.884Z,119.87
2022-10-12T22:41:36.375Z,120.27
2022-10-12T22:44:03.955Z,120.00
2022-10-12T22:46:31.480Z,119.60
2022-10-12T22:48:59.002Z,120.37
2022-10-12T22:51:39.190Z,119.90
2022-10-12T22:54:07.462Z,119.67
2022-10-12T22:56:35.095Z,120.30
2022-10-12T22:59:06.916Z,119.57
2022-10-12T23:01:36.058Z,119.37
2022-10-12T23:04:03.516Z,119.47
2022-10-12T23:06:30.529Z,120.10
2022-10-12T23:08:58.031Z,120.00
2022-10-12T23:11:29.187Z,120.67
2022-10-12T23:13:57.964Z,119.37
2022-10-12T23:16:31.398Z,120.27
2022-10-12T23:19:05.729Z,120.37
2022-10-12T23:21:35.300Z,120.17
2022-10-12T23:24:06.665Z,120.50
2022-10-12T23:26:34.603Z,119.73
2022-10-12T23:29:02.127Z,120.37
2022-10-12T23:31:31.353Z,120.20
2022-10-12T23:34:04.423Z,120.07
2022-10-12T23:36:32.267Z,120.30
2022-10-12T23:39:04.881Z,119.97
2022-10-12T23:41:32.647Z,120.90
2022-10-12T23:43:59.619Z,119.77
2022-10-12T23:46:27.235Z,120.30
2022-10-12T23:48:57.187Z,121.13
2022-10-12T23:51:24.668Z,119.03
2022-10-12T23:53:52.093Z,119.87
2022-10-12T23:56:19.566Z,120.37
2022-10-12T23:58:47.014Z,120.83
